Terminal Aerodrome Forecast
Issued by NWS Atlanta, GA

Home | Current Version | Previous Version | Text Only | Print | Product List | Glossary On
Versions: 1 2 3 4 5 6 7 8 9 10 11 12 13 14 15 16 17 18 19 20 21 22 23 24 25 26 27 28 29 30 31 32 33 34 35 36 37 38 39 40 41 42 43 44 45
844
FTUS42 KFFC 232130 AAB
TAFATL
TAF AMD
KATL 232130Z 2322/2424 19007KT P6SM VCSH BKN050
      TEMPO 2401/2403 5SM TSRA BKN040CB
     FM240600 19005KT P6SM OVC006
     FM241200 20008KT 6SM -SHRA OVC006
      TEMPO 2414/2417 VRB15G25KT 4SM TSRA BKN008CB
     FM241700 24015G25KT P6SM VCSH BKN030=

USA.gov is the U.S. government's official web portal to all federal, state and local government web resources and services.